KGXY/GXY METAR and TAF weather

Enter ICAO airport designator
Station Type Date Time Source
KGXY METAR 2020/05/29 19:56 UTC NOAA

KGXY 291956Z 15011G15KT 10SM CLR 31/12 A3013 RMK AO2 SLP160 T03060117


Station Type Date Time Source
KGXY Decoded METAR 2020/05/29 19:56 UTC NOAA

Greeley, Greeley-Weld County Airport, CO, United States (KGXY) 40-26N 104-38W
May 29, 2020 - 03:56 PM EDT / 2020.05.29 1956 UTC
Wind: from the SSE (150 degrees) at 13 MPH (11 KT) gusting to 17 MPH (15 KT):0
Visibility: 10 mile(s):0
Sky conditions: clear
Temperature: 87.1 F (30.6 C)
Dew Point: 53.1 F (11.7 C)
Relative Humidity: 31%
Pressure (altimeter): 30.13 in. Hg (1020 hPa)
ob: KGXY 291956Z 15011G15KT 10SM CLR 31/12 A3013 RMK AO2 SLP160 T03060117
cycle: 20

Station Type Date Time Source
KGXY TAF UTC NOAA

Error!

Example: see airport list